Time;durP1;ratioP1;P1;durP2;ratioP2;P2;SDS_P1;SDS_P2;PMS_P1;PMS_P2;Temp;Humidity;BMP_temperature;BMP_pressure;BME280_temperature;BME280_humidity;BME280_pressure;Samples;Min_cycle;Max_cycle;Signal;HPM_P1;HPM_P2
2021/03/12 00:00:47;;;;;;;;;;;8.10;85.00;;;;;;4393568;32;36534;-78
2021/03/12 00:03:18;;;;;;;;;;;8.10;85.10;;;;;;4393889;32;21127;-78
2021/03/12 00:05:49;;;;;;;;;;;8.10;85.10;;;;;;4393827;32;32430;-79
2021/03/12 00:08:21;;;;;;;;;;;8.00;85.20;;;;;;4394021;32;38994;-79
2021/03/12 00:10:52;;;;;;;;;;;8.00;85.30;;;;;;4407741;32;20082;-78
2021/03/12 00:13:20;;;;;;;;;;;8.00;85.40;;;;;;4394927;32;20007;-78
2021/03/12 00:15:50;;;;;;;;;;;8.00;85.50;;;;;;4407773;32;20052;-79
2021/03/12 00:18:18;;;;;;;;;;;8.00;85.60;;;;;;4382062;32;20010;-78
2021/03/12 00:20:47;;;;;;;;;;;8.00;85.80;;;;;;4382144;32;19998;-78
2021/03/12 00:23:17;;;;;;;;;;;8.00;85.70;;;;;;4394835;32;20089;-79
2021/03/12 00:25:53;;;;;;;;;;;8.00;85.70;;;;;;4394221;32;19996;-79
2021/03/12 00:28:20;;;;;;;;;;;8.00;85.60;;;;;;4408099;32;20000;-79
2021/03/12 00:30:47;;;;;;;;;;;8.00;85.60;;;;;;4393098;32;40026;-78
2021/03/12 00:33:14;;;;;;;;;;;8.00;85.70;;;;;;4381788;32;20008;-78
2021/03/12 00:35:42;;;;;;;;;;;7.90;85.80;;;;;;4394124;32;26588;-79
2021/03/12 00:38:12;;;;;;;;;;;8.00;85.80;;;;;;4394239;32;20034;-78
2021/03/12 00:40:50;;;;;;;;;;;8.00;85.80;;;;;;4407849;32;20031;-78
2021/03/12 00:43:17;;;;;;;;;;;8.00;85.80;;;;;;4393279;32;36634;-77
2021/03/12 00:45:45;;;;;;;;;;;8.00;85.80;;;;;;4393315;32;40749;-78
2021/03/12 00:48:12;;;;;;;;;;;8.00;85.70;;;;;;4393856;32;20049;-78
2021/03/12 00:50:41;;;;;;;;;;;8.00;85.80;;;;;;4393714;32;28003;-78
2021/03/12 00:53:11;;;;;;;;;;;8.00;85.80;;;;;;4394482;32;20074;-78
2021/03/12 00:55:38;;;;;;;;;;;8.00;85.80;;;;;;4406759;32;33460;-78
2021/03/12 00:58:08;;;;;;;;;;;8.00;85.80;;;;;;4393693;32;27772;-78
2021/03/12 01:00:38;;;;;;;;;;;8.00;86.00;;;;;;4394012;32;20071;-78
2021/03/12 01:03:05;;;;;;;;;;;8.00;85.90;;;;;;4377705;32;32236;-79
2021/03/12 01:05:34;;;;;;;;;;;7.90;86.60;;;;;;4378200;32;20011;-79
2021/03/12 01:08:04;;;;;;;;;;;7.90;86.00;;;;;;4391390;32;31712;-79
2021/03/12 01:10:31;;;;;;;;;;;7.90;85.90;;;;;;4390809;32;19996;-79
2021/03/12 01:13:01;;;;;;;;;;;7.90;85.90;;;;;;4390997;32;20070;-79
2021/03/12 01:15:28;;;;;;;;;;;7.80;86.60;;;;;;4390897;32;22747;-79
2021/03/12 01:17:55;;;;;;;;;;;7.80;85.70;;;;;;4390422;32;38055;-78
2021/03/12 01:20:28;;;;;;;;;;;7.80;85.80;;;;;;4378210;32;19997;-79
2021/03/12 01:22:56;;;;;;;;;;;7.80;85.70;;;;;;4378530;32;19992;-78
2021/03/12 01:25:23;;;;;;;;;;;7.80;85.70;;;;;;4390369;32;36250;-78
2021/03/12 01:27:50;;;;;;;;;;;7.90;85.70;;;;;;4390782;32;20257;-78
2021/03/12 01:30:20;;;;;;;;;;;7.80;85.60;;;;;;4389706;32;39375;-78
2021/03/12 01:32:49;;;;;;;;;;;7.80;85.40;;;;;;4392311;32;20061;-79
2021/03/12 01:35:16;;;;;;;;;;;7.80;85.50;;;;;;4390451;32;24243;-78
2021/03/12 01:37:44;;;;;;;;;;;7.80;85.50;;;;;;4390710;32;20019;-79
2021/03/12 01:40:13;;;;;;;;;;;7.80;85.50;;;;;;4390915;32;20039;-78
2021/03/12 01:42:52;;;;;;;;;;;7.80;86.10;;;;;;4379829;32;20000;-79
2021/03/12 01:45:20;;;;;;;;;;;7.80;85.50;;;;;;4377060;32;31473;-79
2021/03/12 01:47:48;;;;;;;;;;;7.80;85.40;;;;;;4391713;32;20884;-78
2021/03/12 01:50:18;;;;;;;;;;;7.80;85.40;;;;;;4392061;32;20046;-78
2021/03/12 01:52:45;;;;;;;;;;;7.80;85.40;;;;;;4390999;32;35982;-78
2021/03/12 01:55:27;;;;;;;;;;;7.90;85.50;;;;;;4389752;32;34091;-78
2021/03/12 01:57:53;;;;;;;;;;;7.80;85.50;;;;;;4377561;32;40213;-78
2021/03/12 02:00:20;;;;;;;;;;;7.80;85.50;;;;;;4390854;32;41854;-78
2021/03/12 02:02:47;;;;;;;;;;;7.80;85.60;;;;;;4389900;32;20302;-78
2021/03/12 02:05:15;;;;;;;;;;;7.80;85.60;;;;;;4391614;32;20012;-78
2021/03/12 02:07:41;;;;;;;;;;;7.80;85.90;;;;;;4391429;32;20009;-79
2021/03/12 02:10:11;;;;;;;;;;;7.80;85.90;;;;;;4378027;32;20048;-78
2021/03/12 02:12:56;;;;;;;;;;;7.80;85.90;;;;;;4390112;32;20004;-78
2021/03/12 02:15:39;;;;;;;;;;;7.80;85.90;;;;;;4390089;32;20008;-78
2021/03/12 02:18:10;;;;;;;;;;;7.80;85.70;;;;;;4376697;32;40793;-78
2021/03/12 02:20:39;;;;;;;;;;;7.80;85.60;;;;;;4389889;32;20114;-78
2021/03/12 02:23:26;;;;;;;;;;;7.80;85.70;;;;;;4377496;32;20063;-79
2021/03/12 02:26:02;;;;;;;;;;;7.80;85.80;;;;;;4367174;32;20005;-79
2021/03/12 02:28:28;;;;;;;;;;;7.80;86.00;;;;;;4390081;32;20056;-78
2021/03/12 02:31:00;;;;;;;;;;;7.80;86.00;;;;;;4378523;32;20016;-78
2021/03/12 02:33:31;;;;;;;;;;;7.80;86.10;;;;;;4390615;32;20431;-78
2021/03/12 02:35:59;;;;;;;;;;;7.70;86.40;;;;;;4377795;32;20460;-78
2021/03/12 02:38:27;;;;;;;;;;;7.70;86.60;;;;;;4377865;32;20389;-78
2021/03/12 02:40:54;;;;;;;;;;;7.70;86.50;;;;;;4377691;32;20000;-79
2021/03/12 02:43:33;;;;;;;;;;;7.70;86.50;;;;;;4378334;32;30711;-78
2021/03/12 02:45:59;;;;;;;;;;;7.70;86.50;;;;;;4388814;32;35479;-79
2021/03/12 02:48:27;;;;;;;;;;;7.80;86.50;;;;;;4376678;32;37409;-78
2021/03/12 02:50:54;;;;;;;;;;;7.80;86.70;;;;;;4389448;32;22125;-78
2021/03/12 02:53:23;;;;;;;;;;;7.70;86.80;;;;;;4391017;32;20368;-78
2021/03/12 02:55:50;;;;;;;;;;;7.70;86.90;;;;;;4376105;32;41981;-78
2021/03/12 02:58:17;;;;;;;;;;;7.70;86.90;;;;;;4388822;32;31737;-78
2021/03/12 03:00:43;;;;;;;;;;;7.70;86.90;;;;;;4388819;32;38522;-78
2021/03/12 03:03:10;;;;;;;;;;;7.60;87.00;;;;;;4403033;32;23474;-78
2021/03/12 03:05:38;;;;;;;;;;;7.60;87.10;;;;;;4392095;32;31646;-78
2021/03/12 03:08:07;;;;;;;;;;;7.60;87.20;;;;;;4379766;32;20004;-78
2021/03/12 03:10:36;;;;;;;;;;;7.60;87.20;;;;;;4392487;32;20000;-78
2021/03/12 03:13:03;;;;;;;;;;;7.60;87.00;;;;;;4391516;32;28245;-78
2021/03/12 03:15:32;;;;;;;;;;;7.70;87.00;;;;;;4405755;32;20019;-78
2021/03/12 03:18:00;;;;;;;;;;;7.60;86.90;;;;;;4391954;32;20434;-78
2021/03/12 03:20:28;;;;;;;;;;;7.60;87.00;;;;;;4378922;32;27811;-78
2021/03/12 03:22:55;;;;;;;;;;;7.60;87.10;;;;;;4391059;32;34413;-79
2021/03/12 03:25:22;;;;;;;;;;;7.60;87.10;;;;;;4391769;32;32146;-78
2021/03/12 03:27:51;;;;;;;;;;;7.50;87.10;;;;;;4379587;32;20452;-78
2021/03/12 03:30:18;;;;;;;;;;;7.50;87.10;;;;;;4405106;32;29247;-78
2021/03/12 03:32:45;;;;;;;;;;;7.60;87.00;;;;;;4405089;32;31682;-79
2021/03/12 03:35:14;;;;;;;;;;;7.60;86.90;;;;;;4405761;32;20007;-79
2021/03/12 03:37:41;;;;;;;;;;;7.60;86.80;;;;;;4392354;32;20003;-78
2021/03/12 03:40:09;;;;;;;;;;;7.60;86.80;;;;;;4392215;32;20527;-78
2021/03/12 03:42:36;;;;;;;;;;;7.60;86.80;;;;;;4406185;32;20468;-78
2021/03/12 03:45:04;;;;;;;;;;;7.60;86.80;;;;;;4379545;32;20059;-78
2021/03/12 03:47:31;;;;;;;;;;;7.60;86.90;;;;;;4379888;32;20016;-78
2021/03/12 03:49:59;;;;;;;;;;;7.60;86.80;;;;;;4406160;32;20490;-78
2021/03/12 03:52:29;;;;;;;;;;;7.60;86.70;;;;;;4393914;32;20059;-79
2021/03/12 03:54:56;;;;;;;;;;;7.60;86.70;;;;;;4394788;32;20053;-78
2021/03/12 03:57:23;;;;;;;;;;;7.60;86.70;;;;;;4395188;32;20075;-79
2021/03/12 03:59:50;;;;;;;;;;;7.60;86.70;;;;;;4382515;32;20404;-79
2021/03/12 04:02:17;;;;;;;;;;;7.60;86.80;;;;;;4394667;32;20071;-79
2021/03/12 04:04:49;;;;;;;;;;;7.60;86.80;;;;;;4394735;32;20020;-78
2021/03/12 04:07:18;;;;;;;;;;;7.60;86.80;;;;;;4408697;32;20007;-78
2021/03/12 04:09:47;;;;;;;;;;;7.60;86.80;;;;;;4394630;32;20044;-78
2021/03/12 04:12:18;;;;;;;;;;;7.60;86.90;;;;;;4394744;32;20016;-78
2021/03/12 04:14:45;;;;;;;;;;;7.60;86.80;;;;;;4394056;32;35541;-78
2021/03/12 04:17:12;;;;;;;;;;;7.60;86.80;;;;;;4408482;32;20014;-78
2021/03/12 04:19:39;;;;;;;;;;;7.60;86.80;;;;;;4394723;32;20071;-78
2021/03/12 04:22:09;;;;;;;;;;;7.60;86.80;;;;;;4394840;32;20055;-78
2021/03/12 04:24:37;;;;;;;;;;;7.60;86.80;;;;;;4393506;32;29606;-78
2021/03/12 04:27:04;;;;;;;;;;;7.60;86.80;;;;;;4381236;32;29023;-78
2021/03/12 04:29:31;;;;;;;;;;;7.60;86.90;;;;;;4393682;32;30338;-77
2021/03/12 04:32:01;;;;;;;;;;;7.60;86.90;;;;;;4394740;32;20071;-78
2021/03/12 04:34:28;;;;;;;;;;;7.50;87.00;;;;;;4380858;32;41563;-78
2021/03/12 04:36:55;;;;;;;;;;;7.50;87.10;;;;;;4393283;32;33342;-78
2021/03/12 04:39:22;;;;;;;;;;;7.50;87.10;;;;;;4393484;32;36061;-78
2021/03/12 04:41:49;;;;;;;;;;;7.50;87.10;;;;;;4407707;32;20081;-78
2021/03/12 04:44:16;;;;;;;;;;;7.50;87.00;;;;;;4393448;32;32476;-78
2021/03/12 04:46:46;;;;;;;;;;;7.50;87.10;;;;;;4394396;32;20010;-78
2021/03/12 04:49:16;;;;;;;;;;;7.50;87.10;;;;;;4381592;32;20349;-78
2021/03/12 04:51:46;;;;;;;;;;;7.40;87.10;;;;;;4408145;32;20008;-78
2021/03/12 04:54:14;;;;;;;;;;;7.40;87.10;;;;;;4394301;32;20040;-78
2021/03/12 04:56:43;;;;;;;;;;;7.40;87.10;;;;;;4407199;32;34115;-78
2021/03/12 04:59:14;;;;;;;;;;;7.40;87.00;;;;;;4394086;32;20392;-78
2021/03/12 05:01:44;;;;;;;;;;;7.40;87.10;;;;;;4389742;32;43214;-78
2021/03/12 05:04:12;;;;;;;;;;;7.40;87.10;;;;;;4379153;32;20006;-78
2021/03/12 05:06:40;;;;;;;;;;;7.40;87.10;;;;;;4390529;32;20629;-79
2021/03/12 05:09:08;;;;;;;;;;;7.40;88.00;;;;;;4378894;32;19996;-78
2021/03/12 05:11:35;;;;;;;;;;;7.30;87.20;;;;;;4392680;32;20008;-78
2021/03/12 05:14:02;;;;;;;;;;;7.30;87.30;;;;;;4392372;32;20060;-78
2021/03/12 05:16:28;;;;;;;;;;;7.20;87.30;;;;;;4391215;32;20078;-78
2021/03/12 05:18:55;;;;;;;;;;;7.30;87.40;;;;;;4392044;32;20022;-78
2021/03/12 05:21:25;;;;;;;;;;;7.30;87.20;;;;;;4391431;32;20402;-79
2021/03/12 05:23:54;;;;;;;;;;;7.20;87.20;;;;;;4391281;32;20052;-78
2021/03/12 05:26:23;;;;;;;;;;;7.20;87.30;;;;;;4390793;32;20082;-78
2021/03/12 05:28:56;;;;;;;;;;;7.20;87.50;;;;;;4378883;32;20000;-78
2021/03/12 05:31:24;;;;;;;;;;;7.20;87.50;;;;;;4390856;32;20008;-78
2021/03/12 05:33:52;;;;;;;;;;;7.20;87.50;;;;;;4391268;32;37182;-78
2021/03/12 05:36:21;;;;;;;;;;;7.20;87.50;;;;;;4389830;32;30522;-78
2021/03/12 05:38:51;;;;;;;;;;;7.20;88.20;;;;;;4378416;32;20051;-78
2021/03/12 05:41:18;;;;;;;;;;;7.20;87.30;;;;;;4389798;32;27921;-78
2021/03/12 05:43:45;;;;;;;;;;;7.20;87.50;;;;;;4390555;32;19996;-78
2021/03/12 05:46:17;;;;;;;;;;;7.10;87.70;;;;;;4390021;32;35489;-78
2021/03/12 05:48:44;;;;;;;;;;;7.20;87.80;;;;;;4390124;32;24186;-78
2021/03/12 05:51:14;;;;;;;;;;;7.20;87.70;;;;;;4389427;32;36533;-78
2021/03/12 05:53:40;;;;;;;;;;;7.20;87.80;;;;;;4389995;32;36424;-78
2021/03/12 05:56:07;;;;;;;;;;;7.20;87.80;;;;;;4390739;32;20018;-78
2021/03/12 05:58:36;;;;;;;;;;;7.20;87.70;;;;;;4391305;32;20001;-78
2021/03/12 06:01:03;;;;;;;;;;;7.20;87.80;;;;;;4389778;32;21013;-78
2021/03/12 06:03:29;;;;;;;;;;;7.20;87.60;;;;;;4376854;32;35179;-78
2021/03/12 06:05:59;;;;;;;;;;;7.20;87.50;;;;;;4389337;32;40723;-78
2021/03/12 06:08:26;;;;;;;;;;;7.20;87.40;;;;;;4389818;32;29938;-78
2021/03/12 06:10:53;;;;;;;;;;;7.30;87.50;;;;;;4376987;32;30434;-78
2021/03/12 06:13:20;;;;;;;;;;;7.30;87.50;;;;;;4389000;32;41527;-78
2021/03/12 06:15:47;;;;;;;;;;;7.30;87.60;;;;;;4389247;32;32855;-78
2021/03/12 06:18:14;;;;;;;;;;;7.20;87.60;;;;;;4389279;32;26549;-78
2021/03/12 06:20:41;;;;;;;;;;;7.20;87.70;;;;;;4390073;32;20007;-78
2021/03/12 06:23:08;;;;;;;;;;;7.20;87.70;;;;;;4388832;32;43481;-78
2021/03/12 06:25:37;;;;;;;;;;;7.20;87.70;;;;;;4377448;32;22401;-78
2021/03/12 06:28:13;;;;;;;;;;;7.20;87.60;;;;;;4389059;32;32769;-78
2021/03/12 06:30:39;;;;;;;;;;;7.20;87.60;;;;;;4390489;32;20423;-78
2021/03/12 06:33:23;;;;;;;;;;;7.20;87.70;;;;;;4390599;32;20063;-78
2021/03/12 06:35:52;;;;;;;;;;;7.10;87.70;;;;;;4390445;32;20345;-78
2021/03/12 06:38:22;;;;;;;;;;;7.10;87.80;;;;;;4391164;32;20170;-79
2021/03/12 06:40:49;;;;;;;;;;;7.10;87.80;;;;;;4390828;32;20062;-78
2021/03/12 06:43:18;;;;;;;;;;;7.20;87.80;;;;;;4390085;32;20023;-78
2021/03/12 06:45:50;;;;;;;;;;;7.20;87.90;;;;;;4377950;32;20004;-78
2021/03/12 06:48:18;;;;;;;;;;;7.20;87.90;;;;;;4390130;32;20018;-78
2021/03/12 06:50:55;;;;;;;;;;;7.20;88.00;;;;;;4391013;32;20011;-78
2021/03/12 06:53:37;;;;;;;;;;;7.20;88.10;;;;;;4390513;32;20008;-78
2021/03/12 06:56:07;;;;;;;;;;;7.20;88.20;;;;;;4377712;32;20000;-78
2021/03/12 06:58:34;;;;;;;;;;;7.20;88.20;;;;;;4389745;32;20019;-78
2021/03/12 07:01:02;;;;;;;;;;;7.20;88.30;;;;;;4389988;32;20011;-78
2021/03/12 07:03:30;;;;;;;;;;;7.20;88.50;;;;;;4389534;32;20086;-78
2021/03/12 07:05:59;;;;;;;;;;;7.20;88.60;;;;;;4389953;32;20007;-78
2021/03/12 07:08:33;;;;;;;;;;;7.20;88.60;;;;;;4389858;32;20059;-78
2021/03/12 07:11:00;;;;;;;;;;;7.20;88.60;;;;;;4391381;32;20075;-78
2021/03/12 07:13:29;;;;;;;;;;;7.20;88.60;;;;;;4391296;32;20071;-78
2021/03/12 07:15:59;;;;;;;;;;;7.20;88.70;;;;;;4377308;32;20008;-79
2021/03/12 07:18:26;;;;;;;;;;;7.20;88.80;;;;;;4390023;32;20051;-78
2021/03/12 07:20:56;;;;;;;;;;;7.20;88.80;;;;;;4391224;32;20333;-78
2021/03/12 07:23:26;;;;;;;;;;;7.20;89.10;;;;;;4389739;32;20068;-78
2021/03/12 07:25:56;;;;;;;;;;;7.20;89.00;;;;;;4390122;32;20022;-78
2021/03/12 07:28:28;;;;;;;;;;;7.20;89.00;;;;;;4393558;32;20015;-78
2021/03/12 07:30:55;;;;;;;;;;;7.20;89.30;;;;;;4392917;32;20090;-78
2021/03/12 07:33:29;;;;;;;;;;;7.20;89.40;;;;;;4392432;32;20016;-79
2021/03/12 07:35:58;;;;;;;;;;;7.20;89.50;;;;;;4380485;32;20027;-78
2021/03/12 07:38:25;;;;;;;;;;;7.20;89.40;;;;;;4393544;32;20007;-79
2021/03/12 07:40:54;;;;;;;;;;;7.20;89.40;;;;;;4392695;32;20060;-78
2021/03/12 07:43:22;;;;;;;;;;;7.20;89.40;;;;;;4392526;32;20026;-79
2021/03/12 07:45:49;;;;;;;;;;;7.20;89.50;;;;;;4380054;32;20007;-78
2021/03/12 07:48:25;;;;;;;;;;;7.20;89.50;;;;;;4393801;32;20417;-79
2021/03/12 07:51:02;;;;;;;;;;;7.20;89.50;;;;;;4393581;32;20405;-79
2021/03/12 07:53:48;;;;;;;;;;;7.20;89.60;;;;;;4393721;32;20396;-78
2021/03/12 07:56:15;;;;;;;;;;;7.20;89.40;;;;;;4392786;32;38200;-79
2021/03/12 07:58:50;;;;;;;;;;;7.30;89.60;;;;;;4378790;32;44737;-78
2021/03/12 08:01:17;;;;;;;;;;;7.20;89.40;;;;;;4392644;32;28200;-78
2021/03/12 08:03:44;;;;;;;;;;;7.30;89.40;;;;;;4395018;32;20018;-78
2021/03/12 08:06:17;;;;;;;;;;;7.30;90.00;;;;;;4394939;32;20444;-78
2021/03/12 08:08:45;;;;;;;;;;;7.30;89.40;;;;;;4393878;32;32152;-78
2021/03/12 08:11:25;;;;;;;;;;;7.40;89.60;;;;;;4381980;32;20018;-79
2021/03/12 08:14:09;;;;;;;;;;;7.30;89.40;;;;;;4382173;32;20048;-78
2021/03/12 08:17:05;;;;;;;;;;;7.40;89.50;;;;;;4382169;32;20000;-79
2021/03/12 08:19:33;;;;;;;;;;;7.40;89.40;;;;;;4391676;32;33310;-78
2021/03/12 08:22:00;;;;;;;;;;;7.40;89.50;;;;;;4408177;32;20068;-78
2021/03/12 08:24:59;;;;;;;;;;;7.50;89.40;;;;;;4407368;32;28582;-78
2021/03/12 08:27:35;;;;;;;;;;;7.50;90.00;;;;;;4348042;32;44997;-78
2021/03/12 08:30:02;;;;;;;;;;;7.50;89.20;;;;;;4382230;32;20011;-79
2021/03/12 08:32:37;;;;;;;;;;;7.50;89.30;;;;;;4407939;32;20004;-78
2021/03/12 08:35:06;;;;;;;;;;;7.40;89.30;;;;;;4394555;32;20396;-78
2021/03/12 08:37:32;;;;;;;;;;;7.50;89.40;;;;;;4381461;32;20302;-77
2021/03/12 08:40:14;;;;;;;;;;;7.40;89.40;;;;;;4394879;32;20056;-78
2021/03/12 08:42:56;;;;;;;;;;;7.40;89.50;;;;;;4394312;32;20025;-79
2021/03/12 08:45:42;;;;;;;;;;;7.50;89.70;;;;;;4394157;32;19996;-77
2021/03/12 08:48:18;;;;;;;;;;;7.50;89.60;;;;;;4407741;32;20008;-78
2021/03/12 08:50:53;;;;;;;;;;;7.50;89.60;;;;;;4394322;32;20401;-78
2021/03/12 08:53:20;;;;;;;;;;;7.50;89.70;;;;;;4408204;32;20461;-78
2021/03/12 08:55:48;;;;;;;;;;;7.50;89.40;;;;;;4408002;32;20047;-78
2021/03/12 08:58:15;;;;;;;;;;;7.50;89.40;;;;;;4394268;32;19992;-79
2021/03/12 09:00:43;;;;;;;;;;;7.60;89.50;;;;;;4381494;32;20012;-79
2021/03/12 09:03:13;;;;;;;;;;;7.60;89.50;;;;;;4393722;32;20064;-78
2021/03/12 09:05:40;;;;;;;;;;;7.60;89.50;;;;;;4381827;32;20085;-77
2021/03/12 09:08:07;;;;;;;;;;;7.60;89.30;;;;;;4393762;32;20071;-78
2021/03/12 09:10:34;;;;;;;;;;;7.60;89.50;;;;;;4407589;32;20018;-79
2021/03/12 09:13:01;;;;;;;;;;;7.60;89.60;;;;;;4408041;32;20027;-79
2021/03/12 09:15:28;;;;;;;;;;;7.70;89.40;;;;;;4393602;32;20010;-78
2021/03/12 09:18:14;;;;;;;;;;;7.70;89.30;;;;;;4407935;32;20011;-78
2021/03/12 09:20:42;;;;;;;;;;;7.80;89.00;;;;;;4393738;32;20355;-78
2021/03/12 09:23:09;;;;;;;;;;;7.80;88.90;;;;;;4381391;32;20047;-78
2021/03/12 09:25:41;;;;;;;;;;;7.80;88.90;;;;;;4394509;32;20015;-78
2021/03/12 09:28:09;;;;;;;;;;;7.80;88.90;;;;;;4393725;32;20399;-77
2021/03/12 09:30:43;;;;;;;;;;;7.80;88.80;;;;;;4407742;32;20004;-78
2021/03/12 09:33:25;;;;;;;;;;;7.80;88.90;;;;;;4407462;32;20077;-78
2021/03/12 09:35:53;;;;;;;;;;;7.80;89.00;;;;;;4394066;32;20056;-78
2021/03/12 09:38:38;;;;;;;;;;;7.90;88.90;;;;;;4407647;32;20114;-77
2021/03/12 09:41:17;;;;;;;;;;;7.90;88.90;;;;;;4393649;32;20004;-77
2021/03/12 09:43:45;;;;;;;;;;;7.90;88.70;;;;;;4393437;32;20345;-78
2021/03/12 09:46:20;;;;;;;;;;;8.00;89.00;;;;;;4394293;32;20066;-79
2021/03/12 09:48:57;;;;;;;;;;;8.00;88.60;;;;;;4406906;32;20389;-78
2021/03/12 09:51:25;;;;;;;;;;;8.00;88.60;;;;;;4407258;32;20059;-78
2021/03/12 09:53:55;;;;;;;;;;;8.00;88.50;;;;;;4406988;32;20003;-78
2021/03/12 09:56:25;;;;;;;;;;;8.00;88.40;;;;;;4393418;32;20011;-79
2021/03/12 09:58:51;;;;;;;;;;;8.00;88.30;;;;;;4407417;32;20004;-80
2021/03/12 10:01:20;;;;;;;;;;;8.00;88.40;;;;;;4392737;32;20497;-79
2021/03/12 10:03:49;;;;;;;;;;;8.00;88.40;;;;;;4393290;32;19996;-79
2021/03/12 10:06:19;;;;;;;;;;;8.00;88.30;;;;;;4380446;32;20000;-78
2021/03/12 10:09:06;;;;;;;;;;;8.10;88.70;;;;;;4392754;32;20068;-78
2021/03/12 10:11:44;;;;;;;;;;;8.10;89.30;;;;;;4393031;32;20056;-78
2021/03/12 10:14:28;;;;;;;;;;;8.10;88.20;;;;;;4393264;32;20079;-78
2021/03/12 10:17:25;;;;;;;;;;;8.10;88.10;;;;;;4393066;32;20010;-80
2021/03/12 10:19:59;;;;;;;;;;;8.10;88.00;;;;;;4377137;32;34510;-79
2021/03/12 10:22:33;;;;;;;;;;;8.20;88.30;;;;;;4392687;32;36947;-79
2021/03/12 10:25:08;;;;;;;;;;;8.30;88.60;;;;;;4380551;32;20099;-79
2021/03/12 10:27:36;;;;;;;;;;;8.30;88.30;;;;;;4392997;32;20008;-78
2021/03/12 10:30:08;;;;;;;;;;;8.40;87.20;;;;;;4406407;32;20008;-78
2021/03/12 10:32:43;;;;;;;;;;;8.40;87.10;;;;;;4393712;32;20003;-79
2021/03/12 10:35:14;;;;;;;;;;;8.40;87.50;;;;;;4392614;32;20550;-78
2021/03/12 10:37:41;;;;;;;;;;;8.40;87.40;;;;;;4392819;32;20010;-78
2021/03/12 10:40:08;;;;;;;;;;;8.40;87.10;;;;;;4393153;32;20004;-79
2021/03/12 10:42:35;;;;;;;;;;;8.40;86.70;;;;;;4406400;32;20014;-78
2021/03/12 10:45:06;;;;;;;;;;;8.40;87.30;;;;;;4406546;32;20388;-78
2021/03/12 10:47:37;;;;;;;;;;;8.40;87.00;;;;;;4406523;32;20004;-79
2021/03/12 10:50:20;;;;;;;;;;;8.50;86.80;;;;;;4392687;32;20022;-78
2021/03/12 10:52:47;;;;;;;;;;;8.50;86.70;;;;;;4380325;32;20400;-79
2021/03/12 10:55:19;;;;;;;;;;;8.50;86.20;;;;;;4379914;32;20126;-78
2021/03/12 10:57:58;;;;;;;;;;;8.50;86.60;;;;;;4392600;32;20019;-79
2021/03/12 11:00:28;;;;;;;;;;;8.60;86.20;;;;;;4407289;32;20022;-78
2021/03/12 11:03:01;;;;;;;;;;;8.60;85.90;;;;;;4395533;32;20012;-78
2021/03/12 11:05:29;;;;;;;;;;;8.60;85.90;;;;;;4383166;32;20441;-78
2021/03/12 11:07:56;;;;;;;;;;;8.60;85.90;;;;;;4409695;32;20014;-78
2021/03/12 11:10:23;;;;;;;;;;;8.60;85.80;;;;;;4408952;32;20012;-79
2021/03/12 11:12:54;;;;;;;;;;;8.60;85.50;;;;;;4395396;32;20055;-78
2021/03/12 11:15:21;;;;;;;;;;;8.70;85.70;;;;;;4382858;32;20006;-78
2021/03/12 11:17:48;;;;;;;;;;;8.60;85.20;;;;;;4383188;32;20047;-79
2021/03/12 11:20:20;;;;;;;;;;;8.70;85.80;;;;;;4396024;32;20018;-79
2021/03/12 11:22:47;;;;;;;;;;;8.60;85.30;;;;;;4383455;32;20034;-79
2021/03/12 11:25:16;;;;;;;;;;;8.70;84.80;;;;;;4408845;32;20055;-79
2021/03/12 11:27:43;;;;;;;;;;;8.70;84.90;;;;;;4395120;32;20349;-80
2021/03/12 11:30:12;;;;;;;;;;;8.70;84.50;;;;;;4408792;32;20122;-78
2021/03/12 11:32:39;;;;;;;;;;;8.70;84.80;;;;;;4395591;32;20075;-79
2021/03/12 11:35:07;;;;;;;;;;;8.70;85.90;;;;;;4409252;32;20016;-79
2021/03/12 11:37:34;;;;;;;;;;;8.70;85.00;;;;;;4395405;32;20055;-78
2021/03/12 11:40:01;;;;;;;;;;;8.70;85.00;;;;;;4408667;32;20484;-78
2021/03/12 11:42:28;;;;;;;;;;;8.80;85.10;;;;;;4395423;32;20011;-78
2021/03/12 11:44:58;;;;;;;;;;;8.80;85.20;;;;;;4395696;32;20040;-78
2021/03/12 11:47:25;;;;;;;;;;;8.80;85.00;;;;;;4395055;32;20004;-79
2021/03/12 11:49:52;;;;;;;;;;;8.80;85.00;;;;;;4382981;32;19999;-78
2021/03/12 11:52:26;;;;;;;;;;;8.80;85.00;;;;;;4382411;32;20507;-78
2021/03/12 11:54:53;;;;;;;;;;;8.80;84.80;;;;;;4409183;32;20438;-78
2021/03/12 11:57:21;;;;;;;;;;;8.90;84.90;;;;;;4382693;32;20000;-78
2021/03/12 11:59:48;;;;;;;;;;;8.90;84.80;;;;;;4408597;32;20034;-78
2021/03/12 12:02:18;;;;;;;;;;;8.90;84.70;;;;;;4394737;32;20420;-79
2021/03/12 12:04:48;;;;;;;;;;;8.90;85.00;;;;;;4394712;32;20026;-78
2021/03/12 12:07:19;;;;;;;;;;;8.90;84.40;;;;;;4394195;32;31131;-80
2021/03/12 12:09:46;;;;;;;;;;;8.90;84.40;;;;;;4394826;32;20464;-78
2021/03/12 12:12:13;;;;;;;;;;;9.00;84.50;;;;;;4393604;32;32126;-79
2021/03/12 12:14:41;;;;;;;;;;;9.00;84.30;;;;;;4407568;32;34884;-79
2021/03/12 12:17:11;;;;;;;;;;;9.00;84.60;;;;;;4407648;32;35184;-78
2021/03/12 12:19:39;;;;;;;;;;;9.00;84.70;;;;;;4381246;32;33986;-79
2021/03/12 12:22:07;;;;;;;;;;;9.10;84.60;;;;;;4393600;32;25197;-78
2021/03/12 12:24:34;;;;;;;;;;;9.10;84.10;;;;;;4393492;32;39845;-79
2021/03/12 12:27:01;;;;;;;;;;;9.10;84.00;;;;;;4407343;32;31289;-80
2021/03/12 12:29:27;;;;;;;;;;;9.10;83.70;;;;;;4407473;32;37650;-79
2021/03/12 12:31:54;;;;;;;;;;;9.10;83.70;;;;;;4394037;32;33191;-79
2021/03/12 12:34:21;;;;;;;;;;;9.10;84.20;;;;;;4407710;32;20063;-79
2021/03/12 12:36:47;;;;;;;;;;;9.10;84.40;;;;;;4393477;32;36833;-79
2021/03/12 12:39:16;;;;;;;;;;;9.10;84.40;;;;;;4406932;32;31197;-80
2021/03/12 12:41:45;;;;;;;;;;;9.00;84.30;;;;;;4393884;32;20000;-79
2021/03/12 12:44:13;;;;;;;;;;;9.00;84.50;;;;;;4394119;32;20022;-79
2021/03/12 12:46:43;;;;;;;;;;;9.00;84.30;;;;;;4380312;32;40772;-80
2021/03/12 12:49:10;;;;;;;;;;;9.00;84.40;;;;;;4381360;32;20114;-80
2021/03/12 12:51:42;;;;;;;;;;;8.90;83.90;;;;;;4408282;32;20078;-79
2021/03/12 12:54:10;;;;;;;;;;;8.90;84.10;;;;;;4393333;32;31782;-79
2021/03/12 12:56:37;;;;;;;;;;;8.90;83.70;;;;;;4394347;32;21281;-78
2021/03/12 12:59:04;;;;;;;;;;;8.90;84.50;;;;;;4393035;32;31568;-78
2021/03/12 13:01:30;;;;;;;;;;;8.90;84.80;;;;;;4393023;32;29982;-80
2021/03/12 13:03:57;;;;;;;;;;;8.90;84.60;;;;;;4407093;32;32705;-79
2021/03/12 13:06:24;;;;;;;;;;;8.90;84.60;;;;;;4393686;32;25738;-80
2021/03/12 13:08:51;;;;;;;;;;;8.90;85.00;;;;;;4380275;32;30137;-80
2021/03/12 13:11:22;;;;;;;;;;;8.90;85.10;;;;;;4406946;32;34936;-79
2021/03/12 13:13:48;;;;;;;;;;;8.90;85.40;;;;;;4406953;32;35415;-80
2021/03/12 13:16:16;;;;;;;;;;;8.90;85.50;;;;;;4392740;32;27840;-80
2021/03/12 13:18:44;;;;;;;;;;;8.90;85.60;;;;;;4393663;32;20034;-79
2021/03/12 13:21:11;;;;;;;;;;;8.90;85.90;;;;;;4406932;32;28884;-80
2021/03/12 13:23:39;;;;;;;;;;;8.90;85.90;;;;;;4405478;32;37261;-81
2021/03/12 13:26:07;;;;;;;;;;;8.90;85.90;;;;;;4380469;32;19999;-81
2021/03/12 13:28:35;;;;;;;;;;;8.90;86.20;;;;;;4406488;32;37095;-82
2021/03/12 13:31:02;;;;;;;;;;;8.80;86.30;;;;;;4406905;32;26937;-80
2021/03/12 13:33:29;;;;;;;;;;;8.80;86.80;;;;;;4380134;32;25651;-80
2021/03/12 13:35:59;;;;;;;;;;;8.80;87.20;;;;;;4392637;32;35347;-80
2021/03/12 13:38:27;;;;;;;;;;;8.80;87.40;;;;;;4393477;32;20012;-80
2021/03/12 13:40:54;;;;;;;;;;;8.70;87.70;;;;;;4393850;32;20063;-80
2021/03/12 13:43:28;;;;;;;;;;;8.70;87.70;;;;;;4393145;32;20067;-80
2021/03/12 13:45:55;;;;;;;;;;;8.70;88.30;;;;;;4392882;32;20000;-80
2021/03/12 13:48:22;;;;;;;;;;;8.70;88.20;;;;;;4392782;32;30545;-80
2021/03/12 13:50:49;;;;;;;;;;;8.70;88.50;;;;;;4380149;32;20012;-80
2021/03/12 13:53:17;;;;;;;;;;;8.70;88.70;;;;;;4406891;32;20037;-79
2021/03/12 13:55:44;;;;;;;;;;;8.60;89.40;;;;;;4380001;32;32734;-79
2021/03/12 13:58:11;;;;;;;;;;;8.60;89.30;;;;;;4405956;32;36072;-78
2021/03/12 14:00:41;;;;;;;;;;;8.60;89.60;;;;;;4406379;32;27202;-79
2021/03/12 14:03:08;;;;;;;;;;;8.60;89.80;;;;;;4392191;32;35190;-79
2021/03/12 14:05:39;;;;;;;;;;;8.50;90.00;;;;;;4406688;32;20015;-77
2021/03/12 14:08:05;;;;;;;;;;;8.50;90.00;;;;;;4405527;32;33411;-78
2021/03/12 14:10:36;;;;;;;;;;;8.50;90.20;;;;;;4406270;32;27344;-77
2021/03/12 14:13:04;;;;;;;;;;;8.50;90.40;;;;;;4380686;32;19995;-78
2021/03/12 14:15:30;;;;;;;;;;;8.50;90.30;;;;;;4406401;32;20116;-76
2021/03/12 14:17:57;;;;;;;;;;;8.50;90.40;;;;;;4391951;32;25075;-77
2021/03/12 14:20:29;;;;;;;;;;;8.40;90.40;;;;;;4380332;32;20324;-76
2021/03/12 14:23:07;;;;;;;;;;;8.40;90.40;;;;;;4406226;32;30152;-77
2021/03/12 14:25:37;;;;;;;;;;;8.40;90.50;;;;;;4392595;32;23673;-77
2021/03/12 14:28:06;;;;;;;;;;;8.40;90.40;;;;;;4379808;32;20010;-77
2021/03/12 14:30:40;;;;;;;;;;;8.40;90.60;;;;;;4393723;32;20012;-77
2021/03/12 14:33:07;;;;;;;;;;;8.30;90.80;;;;;;4392299;32;27005;-77
2021/03/12 14:35:37;;;;;;;;;;;8.20;90.90;;;;;;4392517;32;20012;-78
2021/03/12 14:38:11;;;;;;;;;;;8.20;91.00;;;;;;4406532;32;19996;-77
2021/03/12 14:40:38;;;;;;;;;;;8.10;91.20;;;;;;4391607;32;29448;-77
2021/03/12 14:43:10;;;;;;;;;;;8.00;91.50;;;;;;4392206;32;20046;-77
2021/03/12 14:45:40;;;;;;;;;;;7.90;91.30;;;;;;4392939;32;20007;-77